createdAt,value
2019-01-09T00:02:19.078Z,3.30
2019-01-09T00:04:49.524Z,3.28
2019-01-09T00:07:19.989Z,3.29
2019-01-09T00:09:50.438Z,3.29
2019-01-09T00:12:20.942Z,3.31
2019-01-09T00:14:51.690Z,3.30
2019-01-09T00:17:22.712Z,3.27
2019-01-09T00:19:53.183Z,3.28
2019-01-09T00:22:23.912Z,3.20
2019-01-09T00:24:54.701Z,3.20
2019-01-09T00:27:25.301Z,3.19
2019-01-09T00:29:55.740Z,3.15
2019-01-09T00:32:26.498Z,3.11
2019-01-09T00:34:57.235Z,3.16
2019-01-09T00:37:27.716Z,3.18
2019-01-09T00:39:58.453Z,3.20
2019-01-09T00:42:28.903Z,3.14
2019-01-09T00:44:59.368Z,3.19
2019-01-09T00:47:29.833Z,3.13
2019-01-09T00:50:00.312Z,3.19
2019-01-09T00:52:30.743Z,3.18
2019-01-09T00:55:01.467Z,3.18
2019-01-09T00:57:31.923Z,3.23
2019-01-09T01:00:02.371Z,3.24
2019-01-09T01:03:13.922Z,3.22
2019-01-09T01:06:31.293Z,3.21
2019-01-09T01:09:47.235Z,3.16
2019-01-09T01:13:00.205Z,3.18
2019-01-09T01:16:16.326Z,3.12
2019-01-09T01:19:33.855Z,3.12
2019-01-09T01:22:30.932Z,3.21
2019-01-09T01:25:56.214Z,3.14
2019-01-09T01:29:16.402Z,3.16
2019-01-09T01:32:26.438Z,3.08
2019-01-09T01:35:54.714Z,3.15
2019-01-09T01:39:00.050Z,3.13
2019-01-09T01:42:03.565Z,3.09
2019-01-09T01:44:52.417Z,3.10
2019-01-09T01:47:54.439Z,3.10
2019-01-09T01:51:06.775Z,3.11
2019-01-09T01:53:55.084Z,3.22
2019-01-09T01:56:54.652Z,3.22
2019-01-09T01:59:50.428Z,3.21
2019-01-09T02:02:55.943Z,3.19
2019-01-09T02:06:04.537Z,3.20
2019-01-09T02:09:23.400Z,3.28
2019-01-09T02:12:18.984Z,3.28
2019-01-09T02:15:39.067Z,3.21
2019-01-09T02:18:19.004Z,3.19
2019-01-09T02:21:27.562Z,3.26
2019-01-09T02:24:49.980Z,3.26
2019-01-09T02:27:56.663Z,3.30
2019-01-09T02:31:12.792Z,3.30
2019-01-09T02:33:43.484Z,3.30
2019-01-09T02:36:14.494Z,3.31
2019-01-09T02:38:44.944Z,3.31
2019-01-09T02:41:15.675Z,3.29
2019-01-09T02:43:46.454Z,3.34
2019-01-09T02:46:16.905Z,3.23
2019-01-09T02:48:48.680Z,3.30
2019-01-09T02:51:19.276Z,3.31
2019-01-09T02:53:50.002Z,3.29
2019-01-09T02:56:20.764Z,3.29
2019-01-09T02:58:51.211Z,3.27
2019-01-09T03:01:21.924Z,3.25
2019-01-09T03:03:52.383Z,3.25
2019-01-09T03:06:23.507Z,3.21
2019-01-09T03:08:54.265Z,3.20
2019-01-09T03:11:24.720Z,3.21
2019-01-09T03:13:55.154Z,3.19
2019-01-09T03:16:25.614Z,3.16
2019-01-09T03:18:56.346Z,3.09
2019-01-09T03:21:26.822Z,3.08
2019-01-09T03:23:57.264Z,2.97
2019-01-09T03:26:27.699Z,2.99
2019-01-09T03:28:58.158Z,3.00
2019-01-09T03:31:28.598Z,2.96
2019-01-09T03:33:59.373Z,3.04
2019-01-09T03:36:32.989Z,2.99
2019-01-09T03:39:01.935Z,2.95
2019-01-09T03:41:32.400Z,2.97
2019-01-09T03:44:02.831Z,3.02
2019-01-09T03:46:33.927Z,3.00
2019-01-09T03:49:04.354Z,3.01
2019-01-09T03:51:34.786Z,3.03
2019-01-09T03:54:05.240Z,3.01
2019-01-09T03:56:35.956Z,2.99
2019-01-09T03:59:06.433Z,2.95
2019-01-09T04:01:36.860Z,2.98
2019-01-09T04:04:07.300Z,2.92
2019-01-09T04:06:41.995Z,2.95
2019-01-09T04:09:10.486Z,2.96
2019-01-09T04:11:41.714Z,2.95
2019-01-09T04:14:12.446Z,2.94
2019-01-09T04:16:43.252Z,2.87
2019-01-09T04:19:13.699Z,2.90
2019-01-09T04:21:44.141Z,2.77
2019-01-09T04:24:14.621Z,2.80
2019-01-09T04:26:45.799Z,2.81
2019-01-09T04:29:16.396Z,2.82
2019-01-09T04:31:46.866Z,2.79
2019-01-09T04:34:17.307Z,2.88
2019-01-09T04:36:51.699Z,2.83
2019-01-09T04:39:20.230Z,2.86
2019-01-09T04:41:50.728Z,2.83
2019-01-09T04:44:21.485Z,2.76
2019-01-09T04:46:52.216Z,2.82
2019-01-09T04:49:22.724Z,2.82
2019-01-09T04:51:53.152Z,2.82
2019-01-09T04:54:23.585Z,2.83
2019-01-09T04:56:55.219Z,2.83
2019-01-09T04:59:26.804Z,2.76
2019-01-09T05:01:57.741Z,2.74
2019-01-09T05:04:29.055Z,2.75
2019-01-09T05:07:00.688Z,2.70
2019-01-09T05:09:31.996Z,2.69
2019-01-09T05:12:02.728Z,2.72
2019-01-09T05:14:33.191Z,2.72
2019-01-09T05:17:04.451Z,2.69
2019-01-09T05:19:35.189Z,2.72
2019-01-09T05:22:05.950Z,2.67
2019-01-09T05:24:36.974Z,2.70
2019-01-09T05:27:07.808Z,2.73
2019-01-09T05:29:38.239Z,2.74
2019-01-09T05:32:08.719Z,2.65
2019-01-09T05:34:39.155Z,2.66
2019-01-09T05:37:09.972Z,2.73
2019-01-09T05:39:40.414Z,2.72
2019-01-09T05:42:10.934Z,2.69
2019-01-09T05:44:41.405Z,2.70
2019-01-09T05:47:12.499Z,2.70
2019-01-09T05:49:42.964Z,2.74
2019-01-09T05:52:13.436Z,2.73
2019-01-09T05:54:43.867Z,2.71
2019-01-09T05:57:14.512Z,2.70
2019-01-09T05:59:44.941Z,2.69
2019-01-09T06:02:15.376Z,2.70
2019-01-09T06:04:45.911Z,2.69
2019-01-09T06:07:18.555Z,2.76
2019-01-09T06:09:49.126Z,2.76
2019-01-09T06:12:19.560Z,2.74
2019-01-09T06:14:50.285Z,2.73
2019-01-09T06:17:20.740Z,2.76
2019-01-09T06:19:51.185Z,2.78
2019-01-09T06:22:21.962Z,2.77
2019-01-09T06:24:52.845Z,2.70
2019-01-09T06:27:23.572Z,2.71
2019-01-09T06:29:54.036Z,2.66
2019-01-09T06:32:24.472Z,2.68
2019-01-09T06:34:55.232Z,2.68
2019-01-09T06:37:27.704Z,2.69
2019-01-09T06:39:58.071Z,2.71
2019-01-09T06:42:28.827Z,2.69
2019-01-09T06:44:59.268Z,2.68
2019-01-09T06:47:30.027Z,2.69
2019-01-09T06:50:00.485Z,2.71
2019-01-09T06:52:30.959Z,2.70
2019-01-09T06:55:01.447Z,2.68
2019-01-09T06:57:32.220Z,2.66
2019-01-09T07:00:02.768Z,2.64
2019-01-09T07:02:33.479Z,2.63
2019-01-09T07:05:03.916Z,2.68
2019-01-09T07:07:36.162Z,2.69
2019-01-09T07:10:06.778Z,2.65
2019-01-09T07:12:37.699Z,2.68
2019-01-09T07:15:11.583Z,2.65
2019-01-09T07:17:40.470Z,2.65
2019-01-09T07:20:10.926Z,2.66
2019-01-09T07:22:41.651Z,2.65
2019-01-09T07:25:12.584Z,2.61
2019-01-09T07:27:43.095Z,2.62
2019-01-09T07:30:13.523Z,2.51
2019-01-09T07:32:44.266Z,2.49
2019-01-09T07:35:14.704Z,2.56
2019-01-09T07:37:45.637Z,2.60
2019-01-09T07:40:16.377Z,2.59
2019-01-09T07:42:46.812Z,2.56
2019-01-09T07:45:17.379Z,2.52
2019-01-09T07:47:47.820Z,2.55
2019-01-09T07:50:18.323Z,2.52
2019-01-09T07:52:48.760Z,2.55
2019-01-09T07:55:19.192Z,2.56
2019-01-09T07:57:50.296Z,2.57
2019-01-09T08:00:20.732Z,2.55
2019-01-09T08:02:51.411Z,2.55
2019-01-09T08:05:21.839Z,2.53
2019-01-09T08:07:54.172Z,2.57
2019-01-09T08:10:24.444Z,2.53
2019-01-09T08:12:54.875Z,2.51
2019-01-09T08:15:25.661Z,2.50
2019-01-09T08:17:56.100Z,2.51
2019-01-09T08:20:26.532Z,2.46
2019-01-09T08:22:56.992Z,2.48
2019-01-09T08:25:27.721Z,2.45
2019-01-09T08:27:58.215Z,2.52
2019-01-09T08:30:28.655Z,2.45
2019-01-09T08:32:59.384Z,2.45
2019-01-09T08:35:29.851Z,2.49
2019-01-09T08:38:02.859Z,2.49
2019-01-09T08:40:32.785Z,2.50
2019-01-09T08:43:03.398Z,2.47
2019-01-09T08:45:34.129Z,2.53
2019-01-09T08:48:05.569Z,2.49
2019-01-09T08:50:36.053Z,2.57
2019-01-09T08:53:06.530Z,2.53
2019-01-09T08:55:37.228Z,2.51
2019-01-09T08:58:07.980Z,2.49
2019-01-09T09:00:38.733Z,2.50
2019-01-09T09:03:09.545Z,2.50
2019-01-09T09:05:40.026Z,2.52
2019-01-09T09:08:12.295Z,2.52
2019-01-09T09:10:43.329Z,2.55
2019-01-09T09:13:46.056Z,2.53
2019-01-09T09:16:16.792Z,2.54
2019-01-09T09:18:48.644Z,2.55
2019-01-09T09:21:19.087Z,2.59
2019-01-09T09:23:49.595Z,2.61
2019-01-09T09:26:20.057Z,2.59
2019-01-09T09:28:50.555Z,2.60
2019-01-09T09:31:21.398Z,2.63
2019-01-09T09:33:51.836Z,2.63
2019-01-09T09:36:22.560Z,2.63
2019-01-09T09:38:53.031Z,2.64
2019-01-09T09:41:23.471Z,2.65
2019-01-09T09:43:53.940Z,2.64
2019-01-09T09:46:24.390Z,2.68
2019-01-09T09:48:54.920Z,2.69
2019-01-09T09:51:25.406Z,2.65
2019-01-09T09:53:55.832Z,2.68
2019-01-09T09:56:26.308Z,2.68
2019-01-09T09:58:56.735Z,2.65
2019-01-09T10:01:27.168Z,2.69
2019-01-09T10:03:57.631Z,2.66
2019-01-09T10:06:28.072Z,2.69
2019-01-09T10:08:58.929Z,2.71
2019-01-09T10:11:29.370Z,2.70
2019-01-09T10:13:59.802Z,2.67
2019-01-09T10:16:30.549Z,2.68
2019-01-09T10:19:00.988Z,2.71
2019-01-09T10:21:31.763Z,2.75
2019-01-09T10:24:02.575Z,2.80
2019-01-09T10:26:33.004Z,2.81
2019-01-09T10:29:03.466Z,2.88
2019-01-09T10:31:33.916Z,2.91
2019-01-09T10:34:04.384Z,2.92
2019-01-09T10:36:35.486Z,2.90
2019-01-09T10:39:09.540Z,2.90
2019-01-09T10:41:39.966Z,2.91
2019-01-09T10:44:18.616Z,2.93
2019-01-09T10:46:42.557Z,2.90
2019-01-09T10:49:12.994Z,2.83
2019-01-09T10:51:43.788Z,2.82
2019-01-09T10:54:14.223Z,2.85
2019-01-09T10:56:44.658Z,2.87
2019-01-09T10:59:15.122Z,2.84
2019-01-09T11:01:45.553Z,2.88
2019-01-09T11:04:16.040Z,2.85
2019-01-09T11:06:46.471Z,2.88
2019-01-09T11:09:17.273Z,2.91
2019-01-09T11:11:47.730Z,2.87
2019-01-09T11:14:18.166Z,2.84
2019-01-09T11:16:48.636Z,2.84
2019-01-09T11:19:19.072Z,2.85
2019-01-09T11:21:49.790Z,2.87
2019-01-09T11:24:20.555Z,2.87
2019-01-09T11:26:51.252Z,2.82
2019-01-09T11:29:22.392Z,2.78
2019-01-09T11:31:52.828Z,2.78
2019-01-09T11:34:23.255Z,2.75
2019-01-09T11:36:53.712Z,2.77
2019-01-09T11:39:24.149Z,2.79
2019-01-09T11:41:54.612Z,2.83
2019-01-09T11:44:25.037Z,2.87
2019-01-09T11:46:55.511Z,2.83
2019-01-09T11:49:25.985Z,2.83
2019-01-09T11:51:56.481Z,2.82
2019-01-09T11:54:27.438Z,2.86
2019-01-09T11:56:57.841Z,2.86
2019-01-09T11:59:28.326Z,2.86
2019-01-09T12:01:58.752Z,2.90
2019-01-09T12:04:29.341Z,2.83
2019-01-09T12:06:59.795Z,2.87
2019-01-09T12:09:30.520Z,2.85
2019-01-09T12:12:01.369Z,2.88
2019-01-09T12:14:32.185Z,2.87
2019-01-09T12:17:02.607Z,2.85
2019-01-09T12:19:33.069Z,2.82
2019-01-09T12:22:03.517Z,2.81
2019-01-09T12:24:37.128Z,2.90
2019-01-09T12:27:07.566Z,2.91
2019-01-09T12:29:37.998Z,2.88
2019-01-09T12:32:08.461Z,2.93
2019-01-09T12:34:38.892Z,2.92
2019-01-09T12:37:09.665Z,2.97
2019-01-09T12:39:40.100Z,2.97
2019-01-09T12:42:10.697Z,3.00
2019-01-09T12:44:41.448Z,2.99
2019-01-09T12:47:11.881Z,3.01
2019-01-09T12:49:42.540Z,3.01
2019-01-09T12:52:12.976Z,2.99
2019-01-09T12:54:44.081Z,3.03
2019-01-09T12:57:15.117Z,2.99
2019-01-09T12:59:45.546Z,3.00
2019-01-09T13:02:16.033Z,2.98
2019-01-09T13:04:46.755Z,2.94
2019-01-09T13:07:17.192Z,2.94
2019-01-09T13:09:47.656Z,2.93
2019-01-09T13:12:18.388Z,2.96
2019-01-09T13:14:48.859Z,2.89
2019-01-09T13:17:21.596Z,2.88
2019-01-09T13:19:52.034Z,2.85
2019-01-09T13:22:22.495Z,2.89
2019-01-09T13:24:53.519Z,2.89
2019-01-09T13:27:24.010Z,2.84
2019-01-09T13:29:54.440Z,2.81
2019-01-09T13:32:25.163Z,2.78
2019-01-09T13:34:55.619Z,2.79
2019-01-09T13:37:26.060Z,2.79
2019-01-09T13:39:56.674Z,2.78
2019-01-09T13:42:27.105Z,2.75
2019-01-09T13:44:57.582Z,2.78
2019-01-09T13:47:28.011Z,2.79
2019-01-09T13:49:58.440Z,2.75
2019-01-09T13:52:29.870Z,2.70
2019-01-09T13:55:00.361Z,2.76
2019-01-09T13:57:31.195Z,2.74
2019-01-09T14:00:01.706Z,2.76
2019-01-09T14:02:32.146Z,2.76
2019-01-09T14:05:03.772Z,2.76
2019-01-09T14:07:34.399Z,2.71
2019-01-09T14:10:05.575Z,2.74
2019-01-09T14:12:36.026Z,2.70
2019-01-09T14:15:07.796Z,2.71
2019-01-09T14:17:38.265Z,2.70
2019-01-09T14:20:11.215Z,2.70
2019-01-09T14:22:41.686Z,2.68
2019-01-09T14:25:12.673Z,2.66
2019-01-09T14:27:43.110Z,2.66
2019-01-09T14:30:17.077Z,2.61
2019-01-09T14:32:47.523Z,2.61
2019-01-09T14:35:17.966Z,2.58
2019-01-09T14:37:48.449Z,2.48
2019-01-09T14:40:18.926Z,2.41
2019-01-09T14:42:49.364Z,2.38
2019-01-09T14:45:19.973Z,2.33
2019-01-09T14:47:50.404Z,2.28
2019-01-09T14:50:23.122Z,2.26
2019-01-09T14:52:53.553Z,2.29
2019-01-09T14:55:24.014Z,2.26
2019-01-09T14:57:54.483Z,2.23
2019-01-09T15:00:28.826Z,2.19
2019-01-09T15:02:59.311Z,2.16
2019-01-09T15:05:29.757Z,2.11
2019-01-09T15:08:00.187Z,2.14
2019-01-09T15:10:31.802Z,2.07
2019-01-09T15:13:02.427Z,2.05
2019-01-09T15:15:32.930Z,2.08
2019-01-09T15:18:03.363Z,2.03
2019-01-09T15:20:33.806Z,2.04
2019-01-09T15:23:04.262Z,2.06
2019-01-09T15:25:34.706Z,2.03
2019-01-09T15:28:05.201Z,2.07
2019-01-09T15:30:35.645Z,2.03
2019-01-09T15:33:06.385Z,2.05
2019-01-09T15:35:36.876Z,2.07
2019-01-09T15:38:07.300Z,2.11
2019-01-09T15:40:37.787Z,2.08
2019-01-09T15:43:08.526Z,2.09
2019-01-09T15:45:38.964Z,2.10
2019-01-09T15:48:09.721Z,2.10
2019-01-09T15:50:40.147Z,2.07
2019-01-09T15:53:10.632Z,2.10
2019-01-09T15:55:41.386Z,2.05
2019-01-09T15:58:12.107Z,1.99
2019-01-09T16:00:45.244Z,2.04
2019-01-09T16:03:15.820Z,2.04
2019-01-09T16:05:46.304Z,2.04
2019-01-09T16:08:16.740Z,1.97
2019-01-09T16:10:47.273Z,1.99
2019-01-09T16:13:17.744Z,1.97
2019-01-09T16:15:48.176Z,1.90
2019-01-09T16:18:18.820Z,1.89
2019-01-09T16:20:49.535Z,1.92
2019-01-09T16:23:20.086Z,1.91
2019-01-09T16:25:50.554Z,1.90
2019-01-09T16:28:21.012Z,1.87
2019-01-09T16:31:13.774Z,1.82
2019-01-09T16:33:44.227Z,1.80
2019-01-09T16:36:14.664Z,1.82
2019-01-09T16:38:45.260Z,1.80
2019-01-09T16:41:15.735Z,1.83
2019-01-09T16:43:46.216Z,1.79
2019-01-09T16:46:17.284Z,1.76
2019-01-09T16:48:47.772Z,1.82
2019-01-09T16:51:18.505Z,1.85
2019-01-09T16:53:49.554Z,1.87
2019-01-09T16:56:20.075Z,1.93
2019-01-09T16:58:50.891Z,1.98
2019-01-09T17:01:21.320Z,2.00
2019-01-09T17:03:52.377Z,1.94
2019-01-09T17:06:23.554Z,1.95
2019-01-09T17:08:54.024Z,2.00
2019-01-09T17:11:24.756Z,1.92
2019-01-09T17:13:55.191Z,1.92
2019-01-09T17:16:25.955Z,1.90
2019-01-09T17:18:56.394Z,1.97
2019-01-09T17:21:27.142Z,1.94
2019-01-09T17:23:57.583Z,1.97
2019-01-09T17:26:28.092Z,1.99
2019-01-09T17:28:59.124Z,1.97
2019-01-09T17:31:29.570Z,2.00
2019-01-09T17:34:00.335Z,1.96
2019-01-09T17:36:30.788Z,1.94
2019-01-09T17:39:01.584Z,1.92
2019-01-09T17:41:33.484Z,1.94
2019-01-09T17:44:04.023Z,1.89
2019-01-09T17:46:34.570Z,1.87
2019-01-09T17:49:05.988Z,1.84
2019-01-09T17:51:36.476Z,1.88
2019-01-09T17:54:06.993Z,1.86
2019-01-09T17:56:37.469Z,1.88
2019-01-09T17:59:07.936Z,1.82
2019-01-09T18:01:38.391Z,1.78
2019-01-09T18:04:09.320Z,1.76
2019-01-09T18:06:39.780Z,1.77
2019-01-09T18:09:10.824Z,1.77
2019-01-09T18:11:41.610Z,1.80
2019-01-09T18:14:12.176Z,1.78
2019-01-09T18:16:42.758Z,1.77
2019-01-09T18:19:13.209Z,1.76
2019-01-09T18:21:43.649Z,1.74
2019-01-09T18:24:14.111Z,1.73
2019-01-09T18:26:44.568Z,1.74
2019-01-09T18:29:15.368Z,1.74
2019-01-09T18:32:14.459Z,1.81
2019-01-09T18:35:16.046Z,1.81
2019-01-09T18:38:20.355Z,1.85
2019-01-09T18:41:30.705Z,1.87
2019-01-09T18:44:27.826Z,1.91
2019-01-09T18:47:11.862Z,1.97
2019-01-09T18:50:41.264Z,1.96
2019-01-09T18:53:33.804Z,1.98
2019-01-09T18:56:04.291Z,2.02
2019-01-09T18:58:34.825Z,1.99
2019-01-09T19:01:07.815Z,1.96
2019-01-09T19:03:39.692Z,2.04
2019-01-09T19:06:11.925Z,2.00
2019-01-09T19:08:42.479Z,1.97
2019-01-09T19:11:12.950Z,1.97
2019-01-09T19:13:43.384Z,1.98
2019-01-09T19:16:13.970Z,2.04
2019-01-09T19:18:46.220Z,2.06
2019-01-09T19:21:16.969Z,2.04
2019-01-09T19:23:47.757Z,2.02
2019-01-09T19:26:18.485Z,2.10
2019-01-09T19:28:48.959Z,2.09
2019-01-09T19:31:19.518Z,2.04
2019-01-09T19:33:50.090Z,2.00
2019-01-09T19:36:20.548Z,1.97
2019-01-09T19:38:51.041Z,1.90
2019-01-09T19:41:21.493Z,1.97
2019-01-09T19:43:52.397Z,2.03
2019-01-09T19:46:22.848Z,2.07
2019-01-09T19:48:53.305Z,2.02
2019-01-09T19:51:24.061Z,2.09
2019-01-09T19:53:54.501Z,2.09
2019-01-09T19:56:25.301Z,2.04
2019-01-09T19:58:56.060Z,2.07
2019-01-09T20:01:26.933Z,2.08
2019-01-09T20:03:57.395Z,2.09
2019-01-09T20:06:27.867Z,2.14
2019-01-09T20:08:58.333Z,2.06
2019-01-09T20:11:28.801Z,2.10
2019-01-09T20:13:59.340Z,2.05
2019-01-09T20:16:29.938Z,2.14
2019-01-09T20:19:00.379Z,2.16
2019-01-09T20:21:31.091Z,2.06
2019-01-09T20:24:02.759Z,2.03
2019-01-09T20:26:35.432Z,2.10
2019-01-09T20:29:06.031Z,2.18
2019-01-09T20:31:36.478Z,2.19
2019-01-09T20:34:07.089Z,2.22
2019-01-09T20:36:37.626Z,2.21
2019-01-09T20:39:09.762Z,2.20
2019-01-09T20:41:40.484Z,2.15
2019-01-09T20:44:10.931Z,2.12
2019-01-09T20:46:41.409Z,2.12
2019-01-09T20:49:12.553Z,2.16
2019-01-09T20:51:43.108Z,2.11
2019-01-09T20:54:13.744Z,2.08
2019-01-09T20:56:44.225Z,2.15
2019-01-09T20:59:14.750Z,2.19
2019-01-09T21:01:45.279Z,2.10
2019-01-09T21:04:15.929Z,2.07
2019-01-09T21:06:47.125Z,1.98
2019-01-09T21:09:20.260Z,2.14
2019-01-09T21:11:51.049Z,2.12
2019-01-09T21:14:21.510Z,2.07
2019-01-09T21:16:52.611Z,2.07
2019-01-09T21:19:24.833Z,2.10
2019-01-09T21:21:55.275Z,2.05
2019-01-09T21:24:25.748Z,2.11
2019-01-09T21:26:56.485Z,2.12
2019-01-09T21:29:27.344Z,2.08
2019-01-09T21:31:58.058Z,2.12
2019-01-09T21:34:29.154Z,2.08
2019-01-09T21:36:59.615Z,2.11
2019-01-09T21:39:30.066Z,2.06
2019-01-09T21:42:00.825Z,2.11
2019-01-09T21:44:31.291Z,2.08
2019-01-09T21:47:01.800Z,2.16
2019-01-09T21:49:32.255Z,2.15
2019-01-09T21:52:03.709Z,2.11
2019-01-09T21:54:34.443Z,2.08
2019-01-09T21:57:04.955Z,2.11
2019-01-09T21:59:35.431Z,2.11
2019-01-09T22:02:05.974Z,2.12
2019-01-09T22:04:36.769Z,2.15
2019-01-09T22:07:07.521Z,2.14
2019-01-09T22:09:37.992Z,2.20
2019-01-09T22:12:08.548Z,2.19
2019-01-09T22:14:39.312Z,2.13
2019-01-09T22:17:09.896Z,2.10
2019-01-09T22:19:40.350Z,2.09
2019-01-09T22:22:11.086Z,2.10
2019-01-09T22:24:41.706Z,2.07
2019-01-09T22:27:12.442Z,2.20
2019-01-09T22:29:43.191Z,2.20
2019-01-09T22:32:13.807Z,2.23
2019-01-09T22:34:44.291Z,2.24
2019-01-09T22:37:14.743Z,2.17
2019-01-09T22:39:45.234Z,2.19
2019-01-09T22:42:16.006Z,2.20
2019-01-09T22:44:46.451Z,2.12
2019-01-09T22:47:16.920Z,2.19
2019-01-09T22:49:47.375Z,2.17
2019-01-09T22:52:18.158Z,2.15
2019-01-09T22:54:48.619Z,2.16
2019-01-09T22:57:19.086Z,2.12
2019-01-09T22:59:49.914Z,2.17
2019-01-09T23:02:20.912Z,2.20
2019-01-09T23:04:51.702Z,2.19
2019-01-09T23:07:22.145Z,2.11
2019-01-09T23:09:52.710Z,2.13
2019-01-09T23:12:23.422Z,2.21
2019-01-09T23:14:54.211Z,2.18
2019-01-09T23:17:24.793Z,2.14
2019-01-09T23:19:55.243Z,2.16
2019-01-09T23:22:25.743Z,2.13
2019-01-09T23:24:56.177Z,2.11
2019-01-09T23:27:26.616Z,2.04
2019-01-09T23:29:57.093Z,2.11
2019-01-09T23:32:27.628Z,2.08
2019-01-09T23:34:58.121Z,2.11
2019-01-09T23:37:28.886Z,2.14
2019-01-09T23:39:59.929Z,2.16
2019-01-09T23:42:30.858Z,2.10
2019-01-09T23:45:01.712Z,2.11
2019-01-09T23:47:32.205Z,2.11
2019-01-09T23:50:02.817Z,2.07
2019-01-09T23:52:33.268Z,2.19
2019-01-09T23:55:04.974Z,2.19
2019-01-09T23:57:35.426Z,2.06
